sensor_id;sensor_type;location;lat;lon;timestamp;P1;durP1;ratioP1;P2;durP2;ratioP2
78824;SDS011;68176;45.554;10.220;2023-12-14T00:02:13;12.07;;;8.68;;
78824;SDS011;68176;45.554;10.220;2023-12-14T00:04:43;11.20;;;8.82;;
78824;SDS011;68176;45.554;10.220;2023-12-14T00:09:43;11.50;;;7.35;;
78824;SDS011;68176;45.554;10.220;2023-12-14T00:12:13;9.05;;;7.45;;
78824;SDS011;68176;45.554;10.220;2023-12-14T00:14:43;11.80;;;8.38;;
78824;SDS011;68176;45.554;10.220;2023-12-14T00:17:13;11.90;;;9.05;;
78824;SDS011;68176;45.554;10.220;2023-12-14T00:19:43;11.32;;;7.95;;
78824;SDS011;68176;45.554;10.220;2023-12-14T00:22:14;10.27;;;9.00;;
78824;SDS011;68176;45.554;10.220;2023-12-14T00:24:43;11.95;;;8.25;;
78824;SDS011;68176;45.554;10.220;2023-12-14T00:27:13;11.35;;;8.13;;
78824;SDS011;68176;45.554;10.220;2023-12-14T00:29:43;10.95;;;8.15;;
78824;SDS011;68176;45.554;10.220;2023-12-14T00:32:13;11.55;;;8.10;;
78824;SDS011;68176;45.554;10.220;2023-12-14T00:37:13;11.00;;;7.55;;
78824;SDS011;68176;45.554;10.220;2023-12-14T00:39:44;9.25;;;7.65;;
78824;SDS011;68176;45.554;10.220;2023-12-14T00:42:13;10.75;;;8.05;;
78824;SDS011;68176;45.554;10.220;2023-12-14T00:44:43;11.13;;;8.35;;
78824;SDS011;68176;45.554;10.220;2023-12-14T00:47:13;11.30;;;8.10;;
78824;SDS011;68176;45.554;10.220;2023-12-14T00:49:44;9.35;;;7.38;;
78824;SDS011;68176;45.554;10.220;2023-12-14T00:52:14;10.52;;;7.82;;
78824;SDS011;68176;45.554;10.220;2023-12-14T00:54:43;10.80;;;9.27;;
78824;SDS011;68176;45.554;10.220;2023-12-14T00:57:14;10.95;;;7.82;;
78824;SDS011;68176;45.554;10.220;2023-12-14T00:59:44;11.25;;;8.18;;
78824;SDS011;68176;45.554;10.220;2023-12-14T01:02:14;10.25;;;7.07;;
78824;SDS011;68176;45.554;10.220;2023-12-14T01:04:44;10.20;;;7.97;;
78824;SDS011;68176;45.554;10.220;2023-12-14T01:07:13;10.60;;;8.55;;
78824;SDS011;68176;45.554;10.220;2023-12-14T01:09:44;10.15;;;8.20;;
78824;SDS011;68176;45.554;10.220;2023-12-14T01:12:14;9.73;;;7.68;;
78824;SDS011;68176;45.554;10.220;2023-12-14T01:14:44;11.05;;;8.48;;
78824;SDS011;68176;45.554;10.220;2023-12-14T01:17:14;10.70;;;7.95;;
78824;SDS011;68176;45.554;10.220;2023-12-14T01:19:44;11.07;;;8.00;;
78824;SDS011;68176;45.554;10.220;2023-12-14T01:22:14;9.00;;;6.88;;
78824;SDS011;68176;45.554;10.220;2023-12-14T01:24:44;9.23;;;7.03;;
78824;SDS011;68176;45.554;10.220;2023-12-14T01:29:44;9.93;;;7.78;;
78824;SDS011;68176;45.554;10.220;2023-12-14T01:34:44;9.98;;;7.53;;
78824;SDS011;68176;45.554;10.220;2023-12-14T01:37:14;11.10;;;7.40;;
78824;SDS011;68176;45.554;10.220;2023-12-14T01:42:14;9.23;;;6.95;;
78824;SDS011;68176;45.554;10.220;2023-12-14T01:44:44;11.43;;;8.80;;
78824;SDS011;68176;45.554;10.220;2023-12-14T01:47:14;10.38;;;7.30;;
78824;SDS011;68176;45.554;10.220;2023-12-14T01:52:14;9.60;;;7.50;;
78824;SDS011;68176;45.554;10.220;2023-12-14T01:54:44;11.10;;;7.85;;
78824;SDS011;68176;45.554;10.220;2023-12-14T01:57:14;9.77;;;7.88;;
78824;SDS011;68176;45.554;10.220;2023-12-14T01:59:44;8.35;;;7.25;;
78824;SDS011;68176;45.554;10.220;2023-12-14T02:02:14;9.65;;;6.97;;
78824;SDS011;68176;45.554;10.220;2023-12-14T02:04:44;10.20;;;7.68;;
78824;SDS011;68176;45.554;10.220;2023-12-14T02:07:14;9.93;;;7.30;;
78824;SDS011;68176;45.554;10.220;2023-12-14T02:09:44;8.50;;;7.03;;
78824;SDS011;68176;45.554;10.220;2023-12-14T02:12:14;9.30;;;7.30;;
78824;SDS011;68176;45.554;10.220;2023-12-14T02:14:44;9.85;;;7.75;;
78824;SDS011;68176;45.554;10.220;2023-12-14T02:17:14;10.77;;;7.85;;
78824;SDS011;68176;45.554;10.220;2023-12-14T02:19:44;10.48;;;7.22;;
78824;SDS011;68176;45.554;10.220;2023-12-14T02:27:14;10.55;;;7.05;;
78824;SDS011;68176;45.554;10.220;2023-12-14T02:29:44;9.88;;;8.18;;
78824;SDS011;68176;45.554;10.220;2023-12-14T02:32:14;7.13;;;5.82;;
78824;SDS011;68176;45.554;10.220;2023-12-14T02:34:44;10.52;;;7.10;;
78824;SDS011;68176;45.554;10.220;2023-12-14T02:39:44;9.57;;;7.25;;
78824;SDS011;68176;45.554;10.220;2023-12-14T02:42:14;8.65;;;6.43;;
78824;SDS011;68176;45.554;10.220;2023-12-14T02:44:44;10.10;;;7.57;;
78824;SDS011;68176;45.554;10.220;2023-12-14T02:47:14;9.98;;;6.35;;
78824;SDS011;68176;45.554;10.220;2023-12-14T02:49:44;11.75;;;7.70;;
78824;SDS011;68176;45.554;10.220;2023-12-14T02:52:14;9.45;;;6.82;;
78824;SDS011;68176;45.554;10.220;2023-12-14T02:54:44;8.40;;;6.80;;
78824;SDS011;68176;45.554;10.220;2023-12-14T02:57:14;8.85;;;6.57;;
78824;SDS011;68176;45.554;10.220;2023-12-14T03:02:14;7.93;;;6.05;;
78824;SDS011;68176;45.554;10.220;2023-12-14T03:04:44;9.13;;;6.97;;
78824;SDS011;68176;45.554;10.220;2023-12-14T03:07:14;11.52;;;7.90;;
78824;SDS011;68176;45.554;10.220;2023-12-14T03:09:44;9.43;;;7.10;;
78824;SDS011;68176;45.554;10.220;2023-12-14T03:12:14;9.18;;;6.57;;
78824;SDS011;68176;45.554;10.220;2023-12-14T03:14:44;12.25;;;7.20;;
78824;SDS011;68176;45.554;10.220;2023-12-14T03:19:44;8.35;;;5.28;;
78824;SDS011;68176;45.554;10.220;2023-12-14T03:22:14;9.50;;;6.50;;
78824;SDS011;68176;45.554;10.220;2023-12-14T03:24:44;9.82;;;6.57;;
78824;SDS011;68176;45.554;10.220;2023-12-14T03:27:14;8.90;;;6.43;;
78824;SDS011;68176;45.554;10.220;2023-12-14T03:29:44;9.73;;;6.50;;
78824;SDS011;68176;45.554;10.220;2023-12-14T03:32:14;8.30;;;6.53;;
78824;SDS011;68176;45.554;10.220;2023-12-14T03:34:44;9.52;;;6.25;;
78824;SDS011;68176;45.554;10.220;2023-12-14T03:39:44;8.35;;;6.53;;
78824;SDS011;68176;45.554;10.220;2023-12-14T03:44:44;9.30;;;7.32;;
78824;SDS011;68176;45.554;10.220;2023-12-14T03:47:14;7.35;;;5.82;;
78824;SDS011;68176;45.554;10.220;2023-12-14T03:49:44;7.70;;;6.30;;
78824;SDS011;68176;45.554;10.220;2023-12-14T03:54:44;9.38;;;7.28;;
78824;SDS011;68176;45.554;10.220;2023-12-14T03:59:44;9.07;;;6.38;;
78824;SDS011;68176;45.554;10.220;2023-12-14T04:02:14;8.63;;;6.35;;
78824;SDS011;68176;45.554;10.220;2023-12-14T04:04:44;8.00;;;6.03;;
78824;SDS011;68176;45.554;10.220;2023-12-14T04:07:15;7.78;;;6.28;;
78824;SDS011;68176;45.554;10.220;2023-12-14T04:09:44;8.02;;;6.43;;
78824;SDS011;68176;45.554;10.220;2023-12-14T04:12:14;8.88;;;6.97;;
78824;SDS011;68176;45.554;10.220;2023-12-14T04:14:45;9.57;;;6.72;;
78824;SDS011;68176;45.554;10.220;2023-12-14T04:17:15;11.00;;;8.25;;
78824;SDS011;68176;45.554;10.220;2023-12-14T04:42:53;7.47;;;5.90;;
78824;SDS011;68176;45.554;10.220;2023-12-14T04:45:18;4.90;;;2.70;;
78824;SDS011;68176;45.554;10.220;2023-12-14T04:47:47;7.85;;;4.95;;
78824;SDS011;68176;45.554;10.220;2023-12-14T04:50:17;9.65;;;6.57;;
78824;SDS011;68176;45.554;10.220;2023-12-14T04:55:17;7.63;;;5.72;;
78824;SDS011;68176;45.554;10.220;2023-12-14T04:57:47;7.38;;;5.85;;
78824;SDS011;68176;45.554;10.220;2023-12-14T05:00:23;8.00;;;6.18;;
78824;SDS011;68176;45.554;10.220;2023-12-14T05:02:49;4.70;;;2.60;;
78824;SDS011;68176;45.554;10.220;2023-12-14T05:05:17;7.72;;;5.65;;
78824;SDS011;68176;45.554;10.220;2023-12-14T05:07:47;8.05;;;6.10;;
78824;SDS011;68176;45.554;10.220;2023-12-14T05:10:17;7.38;;;5.55;;
78824;SDS011;68176;45.554;10.220;2023-12-14T05:12:47;8.95;;;5.88;;
78824;SDS011;68176;45.554;10.220;2023-12-14T05:15:17;7.78;;;6.13;;
78824;SDS011;68176;45.554;10.220;2023-12-14T05:17:47;8.57;;;6.93;;
78824;SDS011;68176;45.554;10.220;2023-12-14T05:20:17;7.85;;;6.15;;
78824;SDS011;68176;45.554;10.220;2023-12-14T05:22:47;7.75;;;5.47;;
78824;SDS011;68176;45.554;10.220;2023-12-14T05:25:17;8.52;;;6.45;;
78824;SDS011;68176;45.554;10.220;2023-12-14T05:27:50;7.95;;;5.88;;
78824;SDS011;68176;45.554;10.220;2023-12-14T05:30:17;6.70;;;5.13;;
78824;SDS011;68176;45.554;10.220;2023-12-14T05:32:47;7.95;;;6.10;;
78824;SDS011;68176;45.554;10.220;2023-12-14T05:35:17;7.45;;;5.28;;
78824;SDS011;68176;45.554;10.220;2023-12-14T05:40:17;8.30;;;6.28;;
78824;SDS011;68176;45.554;10.220;2023-12-14T05:42:47;6.72;;;5.28;;
78824;SDS011;68176;45.554;10.220;2023-12-14T05:45:17;7.68;;;6.05;;
78824;SDS011;68176;45.554;10.220;2023-12-14T05:47:47;6.78;;;4.72;;
78824;SDS011;68176;45.554;10.220;2023-12-14T05:50:17;8.48;;;5.28;;
78824;SDS011;68176;45.554;10.220;2023-12-14T05:55:20;7.40;;;6.15;;
78824;SDS011;68176;45.554;10.220;2023-12-14T05:57:48;8.05;;;5.97;;
78824;SDS011;68176;45.554;10.220;2023-12-14T06:00:23;7.15;;;5.90;;
78824;SDS011;68176;45.554;10.220;2023-12-14T06:02:49;3.80;;;2.70;;
78824;SDS011;68176;45.554;10.220;2023-12-14T06:05:17;8.18;;;5.20;;
78824;SDS011;68176;45.554;10.220;2023-12-14T06:07:47;7.93;;;6.28;;
78824;SDS011;68176;45.554;10.220;2023-12-14T06:10:17;7.00;;;5.55;;
78824;SDS011;68176;45.554;10.220;2023-12-14T06:12:47;7.32;;;5.40;;
78824;SDS011;68176;45.554;10.220;2023-12-14T06:15:17;6.68;;;5.68;;
78824;SDS011;68176;45.554;10.220;2023-12-14T06:17:47;7.20;;;5.28;;
78824;SDS011;68176;45.554;10.220;2023-12-14T06:20:17;7.78;;;5.93;;
78824;SDS011;68176;45.554;10.220;2023-12-14T06:22:47;8.20;;;6.70;;
78824;SDS011;68176;45.554;10.220;2023-12-14T06:25:17;5.75;;;4.63;;
78824;SDS011;68176;45.554;10.220;2023-12-14T06:27:47;8.05;;;5.07;;
78824;SDS011;68176;45.554;10.220;2023-12-14T06:30:19;2.60;;;2.00;;
78824;SDS011;68176;45.554;10.220;2023-12-14T06:32:47;7.53;;;5.32;;
78824;SDS011;68176;45.554;10.220;2023-12-14T06:35:17;6.43;;;5.05;;
78824;SDS011;68176;45.554;10.220;2023-12-14T06:37:47;8.63;;;6.13;;
78824;SDS011;68176;45.554;10.220;2023-12-14T06:40:17;7.97;;;5.95;;
78824;SDS011;68176;45.554;10.220;2023-12-14T06:42:47;7.72;;;5.57;;
78824;SDS011;68176;45.554;10.220;2023-12-14T06:45:30;6.63;;;5.10;;
78824;SDS011;68176;45.554;10.220;2023-12-14T06:47:58;6.30;;;5.50;;
78824;SDS011;68176;45.554;10.220;2023-12-14T06:50:32;6.53;;;4.70;;
78824;SDS011;68176;45.554;10.220;2023-12-14T06:53:00;8.85;;;5.70;;
78824;SDS011;68176;45.554;10.220;2023-12-14T06:58:40;5.35;;;3.88;;
78824;SDS011;68176;45.554;10.220;2023-12-14T07:01:16;4.90;;;3.90;;
78824;SDS011;68176;45.554;10.220;2023-12-14T07:04:11;6.50;;;5.32;;
78824;SDS011;68176;45.554;10.220;2023-12-14T07:06:46;5.70;;;4.53;;
78824;SDS011;68176;45.554;10.220;2023-12-14T07:09:18;6.28;;;4.60;;
78824;SDS011;68176;45.554;10.220;2023-12-14T07:11:44;3.20;;;2.20;;
78824;SDS011;68176;45.554;10.220;2023-12-14T07:14:12;5.90;;;4.25;;
78824;SDS011;68176;45.554;10.220;2023-12-14T07:16:42;9.52;;;5.90;;
78824;SDS011;68176;45.554;10.220;2023-12-14T07:19:15;7.57;;;5.65;;
78824;SDS011;68176;45.554;10.220;2023-12-14T07:22:09;6.93;;;5.70;;
78824;SDS011;68176;45.554;10.220;2023-12-14T07:24:37;6.20;;;4.90;;
78824;SDS011;68176;45.554;10.220;2023-12-14T07:27:09;6.88;;;5.35;;
78824;SDS011;68176;45.554;10.220;2023-12-14T07:29:34;4.40;;;1.80;;
78824;SDS011;68176;45.554;10.220;2023-12-14T07:32:16;6.40;;;4.47;;
78824;SDS011;68176;45.554;10.220;2023-12-14T07:34:59;7.60;;;5.07;;
78824;SDS011;68176;45.554;10.220;2023-12-14T07:37:25;5.40;;;1.90;;
78824;SDS011;68176;45.554;10.220;2023-12-14T07:39:53;6.15;;;4.10;;
78824;SDS011;68176;45.554;10.220;2023-12-14T07:42:23;7.78;;;4.95;;
78824;SDS011;68176;45.554;10.220;2023-12-14T07:44:53;6.32;;;4.22;;
78824;SDS011;68176;45.554;10.220;2023-12-14T07:49:56;6.97;;;4.88;;
78824;SDS011;68176;45.554;10.220;2023-12-14T07:52:23;6.72;;;5.55;;
78824;SDS011;68176;45.554;10.220;2023-12-14T07:57:23;6.80;;;4.95;;
78824;SDS011;68176;45.554;10.220;2023-12-14T08:02:23;5.72;;;4.63;;
78824;SDS011;68176;45.554;10.220;2023-12-14T08:07:25;11.23;;;6.25;;
78824;SDS011;68176;45.554;10.220;2023-12-14T08:09:54;13.00;;;6.93;;
78824;SDS011;68176;45.554;10.220;2023-12-14T08:12:24;10.38;;;5.75;;
78824;SDS011;68176;45.554;10.220;2023-12-14T08:14:53;8.13;;;6.28;;
78824;SDS011;68176;45.554;10.220;2023-12-14T08:17:23;11.32;;;7.00;;
78824;SDS011;68176;45.554;10.220;2023-12-14T08:19:53;9.85;;;6.68;;
78824;SDS011;68176;45.554;10.220;2023-12-14T08:22:27;10.30;;;6.50;;
78824;SDS011;68176;45.554;10.220;2023-12-14T08:25:13;8.68;;;5.93;;
78824;SDS011;68176;45.554;10.220;2023-12-14T08:27:39;9.30;;;6.60;;
78824;SDS011;68176;45.554;10.220;2023-12-14T08:30:05;4.30;;;3.20;;
78824;SDS011;68176;45.554;10.220;2023-12-14T08:32:34;12.48;;;6.47;;
78824;SDS011;68176;45.554;10.220;2023-12-14T08:35:04;10.52;;;7.50;;
78824;SDS011;68176;45.554;10.220;2023-12-14T08:37:35;9.60;;;6.30;;
78824;SDS011;68176;45.554;10.220;2023-12-14T08:40:05;14.07;;;6.68;;
78824;SDS011;68176;45.554;10.220;2023-12-14T08:42:34;10.30;;;5.95;;
78824;SDS011;68176;45.554;10.220;2023-12-14T08:45:04;9.63;;;6.35;;
78824;SDS011;68176;45.554;10.220;2023-12-14T08:47:34;8.27;;;5.45;;
78824;SDS011;68176;45.554;10.220;2023-12-14T08:50:04;9.80;;;6.57;;
78824;SDS011;68176;45.554;10.220;2023-12-14T08:52:34;10.52;;;5.90;;
78824;SDS011;68176;45.554;10.220;2023-12-14T08:55:04;8.18;;;6.07;;
78824;SDS011;68176;45.554;10.220;2023-12-14T08:57:34;9.35;;;6.38;;
78824;SDS011;68176;45.554;10.220;2023-12-14T09:02:35;9.65;;;5.20;;
78824;SDS011;68176;45.554;10.220;2023-12-14T09:05:04;8.70;;;4.25;;
78824;SDS011;68176;45.554;10.220;2023-12-14T09:07:34;9.63;;;5.97;;
78824;SDS011;68176;45.554;10.220;2023-12-14T09:10:04;8.00;;;6.15;;
78824;SDS011;68176;45.554;10.220;2023-12-14T09:12:34;7.60;;;5.43;;
78824;SDS011;68176;45.554;10.220;2023-12-14T09:15:04;6.35;;;5.03;;
78824;SDS011;68176;45.554;10.220;2023-12-14T09:17:34;9.27;;;7.40;;
78824;SDS011;68176;45.554;10.220;2023-12-14T09:20:07;7.57;;;5.53;;
78824;SDS011;68176;45.554;10.220;2023-12-14T09:22:34;7.20;;;5.07;;
78824;SDS011;68176;45.554;10.220;2023-12-14T09:25:04;7.97;;;5.85;;
78824;SDS011;68176;45.554;10.220;2023-12-14T09:27:34;8.60;;;5.45;;
78824;SDS011;68176;45.554;10.220;2023-12-14T09:30:04;6.97;;;4.90;;
78824;SDS011;68176;45.554;10.220;2023-12-14T09:32:34;7.72;;;5.18;;
78824;SDS011;68176;45.554;10.220;2023-12-14T09:35:07;7.20;;;5.00;;
78824;SDS011;68176;45.554;10.220;2023-12-14T09:37:34;7.00;;;4.80;;
78824;SDS011;68176;45.554;10.220;2023-12-14T09:40:07;8.10;;;5.00;;
78824;SDS011;68176;45.554;10.220;2023-12-14T09:42:38;13.85;;;9.38;;
78824;SDS011;68176;45.554;10.220;2023-12-14T09:45:06;23.48;;;13.15;;
78824;SDS011;68176;45.554;10.220;2023-12-14T09:47:35;16.45;;;11.93;;
78824;SDS011;68176;45.554;10.220;2023-12-14T09:50:04;22.80;;;13.52;;
78824;SDS011;68176;45.554;10.220;2023-12-14T09:52:34;24.98;;;14.93;;
78824;SDS011;68176;45.554;10.220;2023-12-14T09:55:04;26.38;;;16.85;;
78824;SDS011;68176;45.554;10.220;2023-12-14T09:57:34;28.17;;;15.27;;
78824;SDS011;68176;45.554;10.220;2023-12-14T10:00:04;26.77;;;14.18;;
78824;SDS011;68176;45.554;10.220;2023-12-14T10:02:35;21.03;;;11.97;;
78824;SDS011;68176;45.554;10.220;2023-12-14T10:05:05;29.38;;;16.63;;
78824;SDS011;68176;45.554;10.220;2023-12-14T10:07:38;24.52;;;15.13;;
78824;SDS011;68176;45.554;10.220;2023-12-14T10:10:12;21.20;;;13.00;;
78824;SDS011;68176;45.554;10.220;2023-12-14T10:13:00;25.45;;;16.25;;
78824;SDS011;68176;45.554;10.220;2023-12-14T10:15:26;27.92;;;15.77;;
78824;SDS011;68176;45.554;10.220;2023-12-14T10:17:55;20.15;;;13.10;;
78824;SDS011;68176;45.554;10.220;2023-12-14T10:20:21;23.90;;;12.40;;
78824;SDS011;68176;45.554;10.220;2023-12-14T10:22:49;25.95;;;17.25;;
78824;SDS011;68176;45.554;10.220;2023-12-14T10:25:19;30.00;;;19.13;;
78824;SDS011;68176;45.554;10.220;2023-12-14T10:27:52;38.92;;;18.30;;
78824;SDS011;68176;45.554;10.220;2023-12-14T10:30:20;13.10;;;8.80;;
78824;SDS011;68176;45.554;10.220;2023-12-14T10:32:49;34.38;;;19.95;;
78824;SDS011;68176;45.554;10.220;2023-12-14T10:35:19;31.58;;;18.83;;
78824;SDS011;68176;45.554;10.220;2023-12-14T10:37:49;31.80;;;18.25;;
78824;SDS011;68176;45.554;10.220;2023-12-14T10:40:19;34.58;;;19.05;;
78824;SDS011;68176;45.554;10.220;2023-12-14T10:42:49;34.90;;;21.02;;
78824;SDS011;68176;45.554;10.220;2023-12-14T10:45:19;28.73;;;18.63;;
78824;SDS011;68176;45.554;10.220;2023-12-14T10:47:49;33.03;;;18.90;;
78824;SDS011;68176;45.554;10.220;2023-12-14T10:50:19;33.05;;;17.27;;
78824;SDS011;68176;45.554;10.220;2023-12-14T10:52:49;33.28;;;21.17;;
78824;SDS011;68176;45.554;10.220;2023-12-14T10:55:28;32.70;;;20.45;;
78824;SDS011;68176;45.554;10.220;2023-12-14T10:58:02;34.42;;;19.52;;
78824;SDS011;68176;45.554;10.220;2023-12-14T11:00:28;22.50;;;15.45;;
78824;SDS011;68176;45.554;10.220;2023-12-14T11:05:26;30.73;;;17.85;;
78824;SDS011;68176;45.554;10.220;2023-12-14T11:07:56;36.55;;;18.88;;
78824;SDS011;68176;45.554;10.220;2023-12-14T11:10:53;26.92;;;17.45;;
78824;SDS011;68176;45.554;10.220;2023-12-14T11:13:24;25.42;;;15.88;;
78824;SDS011;68176;45.554;10.220;2023-12-14T11:15:51;22.15;;;11.60;;
78824;SDS011;68176;45.554;10.220;2023-12-14T11:20:49;34.03;;;20.20;;
78824;SDS011;68176;45.554;10.220;2023-12-14T11:26:00;14.10;;;9.10;;
78824;SDS011;68176;45.554;10.220;2023-12-14T11:28:30;20.75;;;13.40;;
78824;SDS011;68176;45.554;10.220;2023-12-14T11:30:57;20.20;;;11.95;;
78824;SDS011;68176;45.554;10.220;2023-12-14T11:33:24;30.05;;;17.73;;
78824;SDS011;68176;45.554;10.220;2023-12-14T11:38:24;25.92;;;17.60;;
78824;SDS011;68176;45.554;10.220;2023-12-14T11:40:54;38.47;;;17.77;;
78824;SDS011;68176;45.554;10.220;2023-12-14T11:43:24;31.73;;;19.77;;
78824;SDS011;68176;45.554;10.220;2023-12-14T11:45:54;32.42;;;18.63;;
78824;SDS011;68176;45.554;10.220;2023-12-14T11:48:30;30.83;;;19.40;;
78824;SDS011;68176;45.554;10.220;2023-12-14T11:50:55;10.60;;;7.20;;
78824;SDS011;68176;45.554;10.220;2023-12-14T11:53:24;31.38;;;18.02;;
78824;SDS011;68176;45.554;10.220;2023-12-14T11:56:00;29.20;;;20.15;;
78824;SDS011;68176;45.554;10.220;2023-12-14T11:58:27;20.30;;;12.60;;
78824;SDS011;68176;45.554;10.220;2023-12-14T12:00:54;26.45;;;16.90;;
78824;SDS011;68176;45.554;10.220;2023-12-14T12:03:24;33.13;;;18.85;;
78824;SDS011;68176;45.554;10.220;2023-12-14T12:05:54;28.20;;;18.65;;
78824;SDS011;68176;45.554;10.220;2023-12-14T12:08:24;26.80;;;17.30;;
78824;SDS011;68176;45.554;10.220;2023-12-14T12:13:24;27.45;;;18.73;;
78824;SDS011;68176;45.554;10.220;2023-12-14T12:15:54;27.58;;;15.35;;
78824;SDS011;68176;45.554;10.220;2023-12-14T12:18:24;24.98;;;15.77;;
78824;SDS011;68176;45.554;10.220;2023-12-14T12:20:54;25.10;;;16.60;;
78824;SDS011;68176;45.554;10.220;2023-12-14T12:23:28;22.10;;;13.65;;
78824;SDS011;68176;45.554;10.220;2023-12-14T12:25:54;23.65;;;15.00;;
78824;SDS011;68176;45.554;10.220;2023-12-14T12:28:24;26.35;;;17.17;;
78824;SDS011;68176;45.554;10.220;2023-12-14T12:30:54;27.58;;;16.52;;
78824;SDS011;68176;45.554;10.220;2023-12-14T12:35:54;21.95;;;14.52;;
78824;SDS011;68176;45.554;10.220;2023-12-14T12:38:24;22.90;;;15.13;;
78824;SDS011;68176;45.554;10.220;2023-12-14T12:40:54;23.55;;;14.88;;
78824;SDS011;68176;45.554;10.220;2023-12-14T12:43:24;23.20;;;14.93;;
78824;SDS011;68176;45.554;10.220;2023-12-14T12:45:54;23.23;;;15.52;;
78824;SDS011;68176;45.554;10.220;2023-12-14T12:48:24;25.30;;;14.48;;
78824;SDS011;68176;45.554;10.220;2023-12-14T12:50:54;22.02;;;14.35;;
78824;SDS011;68176;45.554;10.220;2023-12-14T12:53:24;24.17;;;15.30;;
78824;SDS011;68176;45.554;10.220;2023-12-14T12:55:54;20.58;;;12.63;;
78824;SDS011;68176;45.554;10.220;2023-12-14T12:58:24;24.23;;;15.00;;
78824;SDS011;68176;45.554;10.220;2023-12-14T13:00:54;24.35;;;14.77;;
78824;SDS011;68176;45.554;10.220;2023-12-14T13:03:24;22.95;;;13.60;;
78824;SDS011;68176;45.554;10.220;2023-12-14T13:08:24;21.08;;;12.63;;
78824;SDS011;68176;45.554;10.220;2023-12-14T13:10:54;19.33;;;13.13;;
78824;SDS011;68176;45.554;10.220;2023-12-14T13:13:24;20.50;;;13.63;;
78824;SDS011;68176;45.554;10.220;2023-12-14T13:15:54;20.58;;;13.82;;
78824;SDS011;68176;45.554;10.220;2023-12-14T13:18:24;19.88;;;13.65;;
78824;SDS011;68176;45.554;10.220;2023-12-14T13:20:54;21.73;;;12.48;;
78824;SDS011;68176;45.554;10.220;2023-12-14T13:25:54;18.25;;;12.60;;
78824;SDS011;68176;45.554;10.220;2023-12-14T13:28:24;21.73;;;13.80;;
78824;SDS011;68176;45.554;10.220;2023-12-14T13:33:24;19.02;;;12.02;;
78824;SDS011;68176;45.554;10.220;2023-12-14T13:35:54;18.65;;;12.73;;
78824;SDS011;68176;45.554;10.220;2023-12-14T13:38:24;20.05;;;12.80;;
78824;SDS011;68176;45.554;10.220;2023-12-14T13:40:54;21.98;;;12.43;;
78824;SDS011;68176;45.554;10.220;2023-12-14T13:43:34;23.02;;;12.13;;
78824;SDS011;68176;45.554;10.220;2023-12-14T13:45:59;17.07;;;9.87;;
78824;SDS011;68176;45.554;10.220;2023-12-14T13:50:55;19.42;;;12.02;;
78824;SDS011;68176;45.554;10.220;2023-12-14T13:53:24;16.17;;;11.05;;
78824;SDS011;68176;45.554;10.220;2023-12-14T13:55:54;18.20;;;11.10;;
78824;SDS011;68176;45.554;10.220;2023-12-14T14:00:54;20.13;;;11.98;;
78824;SDS011;68176;45.554;10.220;2023-12-14T14:06:00;14.17;;;10.43;;
78824;SDS011;68176;45.554;10.220;2023-12-14T14:08:27;11.30;;;7.20;;
78824;SDS011;68176;45.554;10.220;2023-12-14T14:10:55;17.73;;;10.27;;
78824;SDS011;68176;45.554;10.220;2023-12-14T14:13:24;18.60;;;11.45;;
78824;SDS011;68176;45.554;10.220;2023-12-14T14:15:54;20.38;;;10.77;;
78824;SDS011;68176;45.554;10.220;2023-12-14T14:18:26;19.60;;;12.02;;
78824;SDS011;68176;45.554;10.220;2023-12-14T14:20:54;18.42;;;13.07;;
78824;SDS011;68176;45.554;10.220;2023-12-14T14:25:54;23.02;;;14.73;;
78824;SDS011;68176;45.554;10.220;2023-12-14T14:28:25;21.15;;;12.88;;
78824;SDS011;68176;45.554;10.220;2023-12-14T14:30:55;24.10;;;14.55;;
78824;SDS011;68176;45.554;10.220;2023-12-14T14:33:24;21.55;;;14.23;;
78824;SDS011;68176;45.554;10.220;2023-12-14T14:35:55;22.92;;;14.90;;
78824;SDS011;68176;45.554;10.220;2023-12-14T14:38:25;24.30;;;15.88;;
78824;SDS011;68176;45.554;10.220;2023-12-14T14:40:55;23.55;;;14.65;;
78824;SDS011;68176;45.554;10.220;2023-12-14T14:43:25;23.08;;;14.05;;
78824;SDS011;68176;45.554;10.220;2023-12-14T14:45:58;20.63;;;12.85;;
78824;SDS011;68176;45.554;10.220;2023-12-14T14:48:25;19.60;;;14.07;;
78824;SDS011;68176;45.554;10.220;2023-12-14T14:50:55;22.95;;;14.43;;
78824;SDS011;68176;45.554;10.220;2023-12-14T14:53:25;25.80;;;15.77;;
78824;SDS011;68176;45.554;10.220;2023-12-14T14:58:25;22.75;;;12.75;;
78824;SDS011;68176;45.554;10.220;2023-12-14T15:00:55;23.40;;;14.20;;
78824;SDS011;68176;45.554;10.220;2023-12-14T15:03:24;24.27;;;14.18;;
78824;SDS011;68176;45.554;10.220;2023-12-14T15:05:55;21.77;;;13.27;;
78824;SDS011;68176;45.554;10.220;2023-12-14T15:08:25;20.33;;;13.82;;
78824;SDS011;68176;45.554;10.220;2023-12-14T15:10:55;23.23;;;15.25;;
78824;SDS011;68176;45.554;10.220;2023-12-14T15:13:25;24.13;;;13.30;;
78824;SDS011;68176;45.554;10.220;2023-12-14T15:15:55;22.80;;;12.80;;
78824;SDS011;68176;45.554;10.220;2023-12-14T15:18:25;19.95;;;12.13;;
78824;SDS011;68176;45.554;10.220;2023-12-14T15:20:55;21.20;;;14.15;;
78824;SDS011;68176;45.554;10.220;2023-12-14T15:25:55;21.08;;;12.82;;
78824;SDS011;68176;45.554;10.220;2023-12-14T15:28:25;21.05;;;13.63;;
78824;SDS011;68176;45.554;10.220;2023-12-14T15:30:55;20.10;;;12.25;;
78824;SDS011;68176;45.554;10.220;2023-12-14T15:35:55;18.67;;;12.48;;
78824;SDS011;68176;45.554;10.220;2023-12-14T15:38:25;22.10;;;12.40;;
78824;SDS011;68176;45.554;10.220;2023-12-14T15:40:55;18.70;;;12.43;;
78824;SDS011;68176;45.554;10.220;2023-12-14T15:43:25;27.23;;;13.20;;
78824;SDS011;68176;45.554;10.220;2023-12-14T15:45:55;36.08;;;21.42;;
78824;SDS011;68176;45.554;10.220;2023-12-14T15:48:25;42.70;;;23.27;;
78824;SDS011;68176;45.554;10.220;2023-12-14T15:50:55;31.15;;;20.83;;
78824;SDS011;68176;45.554;10.220;2023-12-14T15:53:25;25.77;;;16.45;;
78824;SDS011;68176;45.554;10.220;2023-12-14T15:55:55;31.20;;;17.42;;
78824;SDS011;68176;45.554;10.220;2023-12-14T15:58:25;33.45;;;20.25;;
78824;SDS011;68176;45.554;10.220;2023-12-14T16:00:55;26.67;;;18.40;;
78824;SDS011;68176;45.554;10.220;2023-12-14T16:05:55;32.33;;;18.20;;
78824;SDS011;68176;45.554;10.220;2023-12-14T16:08:25;31.92;;;19.70;;
78824;SDS011;68176;45.554;10.220;2023-12-14T16:10:55;30.27;;;18.88;;
78824;SDS011;68176;45.554;10.220;2023-12-14T16:13:25;29.48;;;18.20;;
78824;SDS011;68176;45.554;10.220;2023-12-14T16:15:55;32.78;;;18.33;;
78824;SDS011;68176;45.554;10.220;2023-12-14T16:18:25;28.55;;;18.10;;
78824;SDS011;68176;45.554;10.220;2023-12-14T16:20:55;32.72;;;19.10;;
78824;SDS011;68176;45.554;10.220;2023-12-14T16:23:25;23.40;;;14.55;;
78824;SDS011;68176;45.554;10.220;2023-12-14T16:25:55;27.95;;;17.08;;
78824;SDS011;68176;45.554;10.220;2023-12-14T16:28:25;26.55;;;17.25;;
78824;SDS011;68176;45.554;10.220;2023-12-14T16:30:55;30.52;;;16.65;;
78824;SDS011;68176;45.554;10.220;2023-12-14T16:33:25;26.48;;;17.63;;
78824;SDS011;68176;45.554;10.220;2023-12-14T16:35:55;31.25;;;17.60;;
78824;SDS011;68176;45.554;10.220;2023-12-14T16:38:25;31.38;;;19.27;;
78824;SDS011;68176;45.554;10.220;2023-12-14T16:40:55;34.05;;;18.85;;
78824;SDS011;68176;45.554;10.220;2023-12-14T16:43:25;26.65;;;17.83;;
78824;SDS011;68176;45.554;10.220;2023-12-14T16:45:55;28.98;;;18.58;;